Dodge City Regional Airport
KDDC : now visible

Airfield :











YOU CAN JOIN US ON...

 
LOGIN :

Register | Disclaimer

   EN    FR    IT 

 









Legend :    VFR   Marginal VFR   IFR   Intensive IFR   Very Intensive IFR
Visi :
Ceiling :
>= 8 km
>= 3000ft
5 to 8 km
1000 to 3000 ft
1500m to 5 km
500 to 1000 ft
800 to 1500m
200 to 500 ft
< 800m
< 200 ft
Symbols :   Thunderstorms  Fog  Heavy snow  Heavy precipitations  Wind > 20 kt






- Airport Elevation : 2594 ft
- IATA code : DDC


KDDC - Dodge City Regional

CURRENT METAR :
  • 152352Z AUTO 34019G32KT 10SM OVC075 04/M11 A3001 RMK AO2 PK WND 35038/2332 SLP174 T00391111 10061 20039 51019 $

EXPIRED METARs :
  • 152252Z AUTO 34023G35KT 10SM SCT070 04/M11 A2999 RMK AO2 PK WND 35042/2158 SLP168 T00441111 $
  • 152152Z AUTO 34023G43KT 9SM CLR 05/M11 A2997 RMK AO2 PK WND 34045/2140 SLP161 T00501111 $
  • 152052Z AUTO 33027G42KT 8SM CLR 06/M12 A2995 RMK AO2 PK WND 32049/1954 SLP151 T00561122 55009 $

TAF KDDC
Valid from the 16 at 00:00 until the 17 at 00:00 UTC


152337Z 1600/1624 34017G26KT P6SM BKN070
FM160200 33012G18KT P6SM BKN070 WS020/34045KT
FM160400 29008KT P6SM SCT070
FM161800 33017G28KT P6SM SKC
KZKC FIR / North America



MET'MAP, your aeronautical weather chart ! - Copyright ORBIFLY December 2007 - Disclaimer

ORBIFLY MET'MAP TEAM :

Programming & Development : Alexandra Zaïnal
Concept & original design : Baudouin d'Aumeries
Assistance for programming : Marc-Olivier Méhu
Technical & hardware support : Manuel Goepfert

Contact : metmap@orbifly.com




SOURCES & CREDITS :

   NOAA       Earth
Advisory